createdAt,value
2022-08-17T00:00:49.183Z,76.17
2022-08-17T00:01:51.730Z,75.27
2022-08-17T00:02:42.807Z,75.27
2022-08-17T00:03:37.609Z,75.17
2022-08-17T00:04:37.834Z,75.34
2022-08-17T00:05:37.975Z,74.97
2022-08-17T00:06:38.135Z,74.97
2022-08-17T00:07:38.294Z,75.07
2022-08-17T00:08:38.455Z,75.17
2022-08-17T00:09:38.633Z,75.37
2022-08-17T00:10:38.810Z,75.37
2022-08-17T00:11:38.985Z,74.97
2022-08-17T00:12:51.162Z,75.37
2022-08-17T00:13:40.278Z,74.97
2022-08-17T00:14:39.409Z,76.07
2022-08-17T00:15:40.138Z,75.27
2022-08-17T00:16:56.208Z,75.27
2022-08-17T00:17:40.911Z,75.27
2022-08-17T00:19:01.850Z,75.17
2022-08-17T00:19:41.283Z,74.84
2022-08-17T00:20:40.435Z,75.07
2022-08-17T00:22:29.663Z,74.87
2022-08-17T00:22:41.706Z,74.33
2022-08-17T00:23:44.272Z,74.33
2022-08-17T00:24:41.986Z,74.73
2022-08-17T00:25:41.127Z,74.67
2022-08-17T00:26:44.636Z,75.04
2022-08-17T00:27:41.505Z,74.43
2022-08-17T00:28:42.151Z,74.57
2022-08-17T00:29:41.901Z,74.93
2022-08-17T00:30:50.930Z,74.97
2022-08-17T00:31:44.142Z,74.47
2022-08-17T00:33:12.121Z,74.97
2022-08-17T00:33:43.654Z,74.77
2022-08-17T00:34:42.777Z,74.43
2022-08-17T00:35:42.939Z,74.63
2022-08-17T00:36:43.156Z,74.57
2022-08-17T00:37:43.308Z,74.97
2022-08-17T00:38:44.148Z,74.43
2022-08-17T00:39:43.692Z,74.73
2022-08-17T00:40:45.116Z,74.54
2022-08-17T00:41:44.045Z,74.54
2022-08-17T00:42:44.201Z,74.63
2022-08-17T00:43:44.373Z,74.63
2022-08-17T00:44:44.523Z,74.93
2022-08-17T00:45:44.700Z,74.33
2022-08-17T00:46:44.864Z,74.73
2022-08-17T00:47:45.038Z,74.54
2022-08-17T00:48:45.171Z,74.63
2022-08-17T00:49:45.328Z,74.93
2022-08-17T00:50:45.527Z,74.93
2022-08-17T00:51:46.647Z,74.97
2022-08-17T00:52:45.930Z,75.47
2022-08-17T00:53:46.181Z,76.28
2022-08-17T00:54:46.334Z,74.90
2022-08-17T00:55:46.478Z,76.11
2022-08-17T00:56:46.740Z,75.91
2022-08-17T00:57:46.881Z,75.91
2022-08-17T00:58:47.077Z,75.91
2022-08-17T01:00:01.743Z,76.11
2022-08-17T01:00:49.246Z,76.51
2022-08-17T01:01:47.504Z,76.41
2022-08-17T01:02:47.664Z,75.71
2022-08-17T01:03:48.168Z,75.91
2022-08-17T01:04:48.654Z,76.01
2022-08-17T01:05:49.152Z,75.81
2022-08-17T01:06:49.154Z,76.31
2022-08-17T01:07:48.705Z,75.31
2022-08-17T01:08:48.872Z,75.41
2022-08-17T01:09:50.658Z,74.87
2022-08-17T01:10:58.922Z,75.27
2022-08-17T01:11:50.273Z,76.11
2022-08-17T01:12:50.672Z,75.31
2022-08-17T01:13:49.605Z,75.41
2022-08-17T01:14:49.823Z,74.51
2022-08-17T01:15:49.994Z,74.80
2022-08-17T01:16:50.161Z,74.97
2022-08-17T01:17:51.164Z,75.27
2022-08-17T01:18:50.523Z,75.17
2022-08-17T01:19:50.679Z,75.91
2022-08-17T01:20:50.804Z,75.87
2022-08-17T01:21:50.958Z,76.31
2022-08-17T01:22:51.260Z,76.41
2022-08-17T01:23:51.246Z,76.21
2022-08-17T01:24:51.458Z,76.34
2022-08-17T01:25:52.164Z,76.41
2022-08-17T01:26:51.784Z,76.21
2022-08-17T01:27:52.664Z,75.31
2022-08-17T01:28:54.263Z,75.31
2022-08-17T01:29:52.318Z,74.77
2022-08-17T01:30:58.276Z,74.37
2022-08-17T01:31:53.667Z,75.41
2022-08-17T01:32:52.897Z,75.37
2022-08-17T01:33:53.022Z,75.60
2022-08-17T01:34:53.176Z,75.31
2022-08-17T01:35:53.295Z,75.51
2022-08-17T01:36:53.516Z,76.21
2022-08-17T01:37:53.650Z,76.11
2022-08-17T01:38:54.668Z,76.41
2022-08-17T01:39:53.994Z,76.51
2022-08-17T01:40:57.518Z,76.21
2022-08-17T01:41:54.677Z,75.91
2022-08-17T01:42:54.428Z,75.41
2022-08-17T01:43:54.555Z,75.10
2022-08-17T01:44:54.694Z,75.27
2022-08-17T01:46:03.100Z,75.31
2022-08-17T01:46:56.176Z,75.41
2022-08-17T01:47:55.166Z,75.31
2022-08-17T01:48:55.330Z,76.31
2022-08-17T01:49:55.470Z,76.41
2022-08-17T01:50:55.617Z,75.91
2022-08-17T01:51:56.672Z,75.91
2022-08-17T01:52:55.912Z,76.15
2022-08-17T01:53:56.200Z,76.75
2022-08-17T01:54:57.179Z,76.34
2022-08-17T01:55:56.414Z,76.65
2022-08-17T01:56:56.563Z,76.65
2022-08-17T01:57:56.706Z,76.78
2022-08-17T01:58:56.884Z,76.98
2022-08-17T01:59:57.030Z,77.89
2022-08-17T02:01:01.298Z,77.59
2022-08-17T02:01:58.327Z,77.69
2022-08-17T02:02:57.553Z,78.19
2022-08-17T02:04:01.215Z,77.69
2022-08-17T02:04:57.930Z,77.99
2022-08-17T02:05:58.071Z,77.59
2022-08-17T02:06:58.204Z,78.12
2022-08-17T02:08:00.579Z,77.89
2022-08-17T02:09:02.636Z,78.12
2022-08-17T02:09:58.797Z,78.03
2022-08-17T02:10:58.982Z,77.62
2022-08-17T02:11:59.090Z,77.72
2022-08-17T02:12:59.233Z,78.22
2022-08-17T02:14:02.471Z,77.72
2022-08-17T02:15:00.181Z,77.69
2022-08-17T02:15:59.826Z,76.68
2022-08-17T02:17:00.021Z,77.28
2022-08-17T02:18:00.159Z,76.89
2022-08-17T02:19:01.175Z,76.58
2022-08-17T02:20:00.426Z,76.98
2022-08-17T02:21:00.570Z,76.58
2022-08-17T02:22:00.753Z,76.65
2022-08-17T02:23:00.911Z,76.58
2022-08-17T02:24:01.070Z,76.78
2022-08-17T02:25:02.579Z,77.09
2022-08-17T02:26:03.184Z,77.28
2022-08-17T02:27:01.707Z,77.62
2022-08-17T02:28:01.896Z,77.83
2022-08-17T02:29:02.066Z,77.62
2022-08-17T02:30:02.240Z,77.83
2022-08-17T02:31:03.376Z,77.76
2022-08-17T02:32:03.570Z,78.06
2022-08-17T02:33:04.295Z,78.06
2022-08-17T02:34:04.434Z,78.27
2022-08-17T02:35:03.686Z,78.16
2022-08-17T02:36:03.208Z,78.16
2022-08-17T02:37:03.364Z,78.06
2022-08-17T02:38:03.522Z,77.72
2022-08-17T02:39:03.701Z,78.03
2022-08-17T02:40:03.938Z,77.02
2022-08-17T02:41:04.007Z,76.18
2022-08-17T02:42:04.195Z,74.68
2022-08-17T02:43:04.365Z,74.84
2022-08-17T02:44:04.559Z,73.74
2022-08-17T02:45:04.755Z,73.40
2022-08-17T02:46:04.913Z,73.90
2022-08-17T02:47:05.074Z,74.30
2022-08-17T02:48:06.187Z,75.21
2022-08-17T02:49:05.482Z,75.24
2022-08-17T02:50:05.655Z,76.28
2022-08-17T02:51:06.689Z,76.58
2022-08-17T02:52:05.962Z,76.38
2022-08-17T02:53:06.274Z,75.88
2022-08-17T02:54:39.280Z,75.58
2022-08-17T02:55:07.475Z,74.88
2022-08-17T02:56:07.196Z,73.03
2022-08-17T02:57:06.859Z,72.20
2022-08-17T02:58:07.020Z,71.16
2022-08-17T02:59:07.693Z,70.12
2022-08-17T03:00:07.341Z,69.53
2022-08-17T03:01:08.191Z,68.39
2022-08-17T03:02:08.306Z,68.05
2022-08-17T03:03:07.883Z,68.13
2022-08-17T03:04:08.042Z,66.99
2022-08-17T03:05:08.202Z,66.52
2022-08-17T03:06:08.368Z,66.79
2022-08-17T03:07:08.565Z,66.26
2022-08-17T03:08:13.126Z,66.19
2022-08-17T03:09:08.861Z,66.19
2022-08-17T03:10:09.696Z,66.06
2022-08-17T03:11:10.199Z,65.66
2022-08-17T03:12:09.704Z,65.66
2022-08-17T03:13:09.584Z,65.46
2022-08-17T03:14:09.745Z,65.96
2022-08-17T03:15:10.700Z,65.16
2022-08-17T03:16:10.107Z,65.16
2022-08-17T03:17:11.229Z,65.76
2022-08-17T03:18:19.281Z,65.56
2022-08-17T03:19:11.668Z,65.36
2022-08-17T03:20:11.697Z,65.26
2022-08-17T03:21:11.058Z,65.26
2022-08-17T03:22:35.614Z,65.43
2022-08-17T03:23:12.432Z,65.06
2022-08-17T03:24:11.528Z,65.26
2022-08-17T03:25:12.200Z,65.26
2022-08-17T03:26:12.402Z,65.23
2022-08-17T03:27:12.701Z,65.06
2022-08-17T03:28:12.318Z,65.36
2022-08-17T03:29:12.461Z,65.63
2022-08-17T03:30:12.645Z,65.46
2022-08-17T03:31:13.236Z,65.26
2022-08-17T03:32:12.995Z,65.26
2022-08-17T03:33:13.164Z,64.96
2022-08-17T03:34:13.334Z,64.86
2022-08-17T03:35:13.501Z,64.96
2022-08-17T03:36:13.659Z,64.63
2022-08-17T03:37:13.803Z,64.93
2022-08-17T03:38:15.175Z,64.73
2022-08-17T03:39:14.199Z,65.06
2022-08-17T03:40:14.408Z,64.73
2022-08-17T03:41:14.530Z,64.86
2022-08-17T03:42:31.941Z,64.73
2022-08-17T03:43:15.788Z,64.93
2022-08-17T03:44:15.718Z,64.53
2022-08-17T03:45:15.636Z,64.93
2022-08-17T03:46:29.009Z,65.26
2022-08-17T03:47:17.213Z,65.13
2022-08-17T03:48:15.705Z,64.86
2022-08-17T03:49:15.884Z,65.23
2022-08-17T03:50:16.052Z,65.56
2022-08-17T03:51:17.209Z,64.96
2022-08-17T03:52:16.369Z,65.16
2022-08-17T03:53:16.546Z,65.13
2022-08-17T03:54:16.748Z,65.06
2022-08-17T03:55:17.713Z,65.46
2022-08-17T03:56:17.700Z,65.16
2022-08-17T03:57:18.353Z,65.06
2022-08-17T03:58:18.213Z,65.26
2022-08-17T03:59:22.297Z,65.26
2022-08-17T04:00:17.966Z,65.46
2022-08-17T04:01:18.769Z,65.26
2022-08-17T04:02:18.309Z,65.26
2022-08-17T04:03:18.456Z,65.36
2022-08-17T04:04:19.221Z,65.36
2022-08-17T04:05:20.713Z,65.36
2022-08-17T04:06:19.068Z,65.56
2022-08-17T04:07:19.732Z,65.06
2022-08-17T04:08:19.346Z,65.56
2022-08-17T04:09:19.497Z,65.36
2022-08-17T04:10:22.711Z,65.56
2022-08-17T04:11:21.719Z,65.46
2022-08-17T04:12:20.245Z,65.43
2022-08-17T04:13:24.738Z,65.26
2022-08-17T04:14:20.406Z,65.26
2022-08-17T04:15:20.537Z,65.16
2022-08-17T04:16:20.677Z,65.13
2022-08-17T04:17:20.910Z,64.76
2022-08-17T04:18:21.050Z,64.96
2022-08-17T04:19:21.190Z,65.03
2022-08-17T04:20:21.358Z,64.83
2022-08-17T04:21:21.516Z,64.63
2022-08-17T04:22:31.095Z,64.93
2022-08-17T04:23:22.826Z,64.93
2022-08-17T04:24:22.076Z,64.83
2022-08-17T04:25:22.217Z,64.73
2022-08-17T04:26:54.170Z,65.03
2022-08-17T04:27:23.507Z,64.53
2022-08-17T04:28:23.218Z,64.30
2022-08-17T04:29:22.895Z,64.20
2022-08-17T04:30:23.070Z,64.13
2022-08-17T04:31:23.256Z,64.40
2022-08-17T04:33:03.605Z,64.30
2022-08-17T04:33:25.678Z,64.13
2022-08-17T04:34:23.837Z,64.10
2022-08-17T04:35:24.001Z,64.33
2022-08-17T04:36:24.161Z,64.40
2022-08-17T04:37:25.246Z,64.03
2022-08-17T04:38:25.227Z,64.43
2022-08-17T04:39:24.713Z,64.00
2022-08-17T04:40:27.268Z,64.20
2022-08-17T04:41:25.074Z,64.20
2022-08-17T04:42:25.260Z,64.30
2022-08-17T04:43:25.451Z,64.30
2022-08-17T04:44:28.335Z,64.10
2022-08-17T04:45:26.770Z,63.70
2022-08-17T04:46:26.932Z,64.00
2022-08-17T04:47:26.100Z,64.10
2022-08-17T04:48:35.597Z,64.00
2022-08-17T04:49:27.410Z,63.70
2022-08-17T04:50:26.566Z,63.90
2022-08-17T04:51:26.775Z,63.60
2022-08-17T04:52:32.306Z,64.00
2022-08-17T04:53:28.728Z,63.80
2022-08-17T04:54:27.214Z,63.67
2022-08-17T04:55:27.365Z,63.57
2022-08-17T04:56:27.565Z,63.57
2022-08-17T04:57:27.759Z,63.67
2022-08-17T04:58:27.920Z,63.57
2022-08-17T04:59:28.082Z,63.37
2022-08-17T05:00:29.255Z,63.37
2022-08-17T05:01:28.510Z,63.44
2022-08-17T05:02:28.594Z,63.24
2022-08-17T05:03:28.763Z,63.34
2022-08-17T05:04:34.009Z,63.34
2022-08-17T05:05:31.117Z,63.04
2022-08-17T05:06:29.269Z,63.24
2022-08-17T05:07:31.688Z,63.24
2022-08-17T05:08:30.776Z,63.14
2022-08-17T05:09:29.902Z,63.14
2022-08-17T05:10:30.748Z,63.24
2022-08-17T05:11:30.736Z,63.34
2022-08-17T05:12:31.235Z,63.24
2022-08-17T05:13:30.518Z,63.04
2022-08-17T05:14:33.223Z,63.44
2022-08-17T05:15:33.213Z,63.34
2022-08-17T05:16:31.986Z,63.54
2022-08-17T05:17:31.206Z,63.44
2022-08-17T05:18:31.344Z,63.14
2022-08-17T05:19:31.506Z,63.24
2022-08-17T05:20:31.621Z,62.91
2022-08-17T05:21:31.763Z,62.81
2022-08-17T05:22:32.741Z,63.01
2022-08-17T05:23:42.098Z,62.81
2022-08-17T05:24:42.739Z,62.71
2022-08-17T05:25:34.554Z,62.91
2022-08-17T05:26:32.679Z,63.11
2022-08-17T05:27:35.136Z,63.11
2022-08-17T05:28:32.929Z,62.71
2022-08-17T05:29:35.459Z,63.01
2022-08-17T05:30:33.746Z,63.01
2022-08-17T05:31:33.499Z,63.11
2022-08-17T05:32:38.805Z,62.91
2022-08-17T05:33:34.845Z,62.91
2022-08-17T05:34:34.099Z,63.01
2022-08-17T05:35:34.242Z,63.01
2022-08-17T05:36:42.736Z,63.01
2022-08-17T05:37:35.629Z,62.91
2022-08-17T05:38:34.733Z,63.21
2022-08-17T05:39:34.919Z,62.81
2022-08-17T05:40:35.748Z,62.59
2022-08-17T05:41:35.277Z,62.71
2022-08-17T05:42:35.762Z,62.71
2022-08-17T05:43:35.657Z,63.11
2022-08-17T05:44:35.793Z,62.98
2022-08-17T05:45:55.848Z,62.98
2022-08-17T05:46:37.112Z,62.78
2022-08-17T05:47:36.240Z,62.78
2022-08-17T05:48:40.143Z,62.88
2022-08-17T05:49:37.253Z,62.88
2022-08-17T05:50:37.757Z,62.68
2022-08-17T05:51:36.993Z,62.48
2022-08-17T05:52:37.157Z,62.59
2022-08-17T05:53:37.289Z,62.78
2022-08-17T05:54:37.445Z,62.59
2022-08-17T05:55:37.582Z,62.26
2022-08-17T05:56:37.706Z,62.35
2022-08-17T05:57:39.870Z,62.65
2022-08-17T05:58:38.987Z,62.85
2022-08-17T05:59:38.199Z,62.15
2022-08-17T06:00:41.989Z,62.55
2022-08-17T06:01:39.290Z,62.45
2022-08-17T06:02:42.024Z,62.45
2022-08-17T06:03:40.030Z,62.15
2022-08-17T06:04:39.126Z,62.26
2022-08-17T06:05:39.270Z,62.15
2022-08-17T06:06:39.437Z,62.26
2022-08-17T06:07:39.575Z,62.26
2022-08-17T06:08:39.737Z,62.15
2022-08-17T06:09:39.889Z,62.15
2022-08-17T06:10:40.047Z,62.26
2022-08-17T06:11:40.784Z,62.15
2022-08-17T06:12:40.446Z,62.32
2022-08-17T06:13:40.775Z,62.05
2022-08-17T06:14:40.797Z,61.96
2022-08-17T06:15:41.767Z,61.76
2022-08-17T06:16:41.272Z,62.13
2022-08-17T06:17:42.301Z,61.93
2022-08-17T06:18:41.409Z,62.13
2022-08-17T06:19:41.587Z,61.69
2022-08-17T06:20:41.775Z,61.72
2022-08-17T06:21:42.752Z,62.02
2022-08-17T06:22:43.160Z,61.63
2022-08-17T06:23:43.270Z,61.83
2022-08-17T06:24:42.521Z,61.80
2022-08-17T06:25:42.684Z,61.20
2022-08-17T06:26:43.773Z,61.80
2022-08-17T06:27:43.028Z,61.40
2022-08-17T06:28:43.767Z,61.50
2022-08-17T06:29:44.271Z,61.20
2022-08-17T06:30:59.271Z,61.40
2022-08-17T06:31:44.704Z,61.30
2022-08-17T06:32:43.833Z,61.99
2022-08-17T06:33:43.973Z,61.50
2022-08-17T06:34:44.770Z,61.60
2022-08-17T06:35:44.788Z,61.80
2022-08-17T06:36:44.407Z,61.80
2022-08-17T06:37:44.613Z,61.40
2022-08-17T06:38:44.768Z,61.60
2022-08-17T06:39:44.992Z,61.69
2022-08-17T06:40:45.774Z,61.20
2022-08-17T06:41:45.298Z,61.69
2022-08-17T06:43:02.753Z,61.69
2022-08-17T06:43:48.109Z,61.50
2022-08-17T06:44:51.422Z,61.40
2022-08-17T06:45:45.973Z,61.20
2022-08-17T06:46:46.771Z,61.80
2022-08-17T06:47:46.786Z,61.43
2022-08-17T06:48:47.419Z,61.40
2022-08-17T06:49:50.542Z,61.69
2022-08-17T06:50:48.311Z,61.40
2022-08-17T06:51:46.903Z,61.80
2022-08-17T06:52:47.543Z,61.37
2022-08-17T06:53:48.311Z,61.47
2022-08-17T06:54:47.436Z,61.30
2022-08-17T06:55:48.295Z,61.37
2022-08-17T06:56:53.871Z,61.67
2022-08-17T06:57:49.073Z,60.97
2022-08-17T06:58:48.296Z,61.47
2022-08-17T06:59:55.163Z,61.17
2022-08-17T07:00:49.518Z,61.47
2022-08-17T07:01:49.280Z,61.47
2022-08-17T07:02:53.033Z,61.67
2022-08-17T07:03:49.197Z,60.97
2022-08-17T07:04:49.364Z,60.87
2022-08-17T07:05:49.561Z,61.77
2022-08-17T07:06:49.752Z,61.37
2022-08-17T07:07:49.924Z,61.07
2022-08-17T07:08:50.119Z,60.87
2022-08-17T07:09:51.287Z,60.77
2022-08-17T07:10:51.283Z,60.87
2022-08-17T07:11:51.284Z,61.44
2022-08-17T07:12:51.175Z,60.68
2022-08-17T07:13:52.268Z,61.17
2022-08-17T07:14:51.216Z,60.77
2022-08-17T07:15:56.437Z,60.84
2022-08-17T07:16:53.794Z,61.04
2022-08-17T07:17:52.284Z,60.94
2022-08-17T07:18:51.891Z,60.35
2022-08-17T07:19:52.015Z,60.35
2022-08-17T07:20:52.309Z,61.11
2022-08-17T07:21:52.327Z,60.42
2022-08-17T07:22:59.912Z,60.19
2022-08-17T07:23:54.289Z,59.66
2022-08-17T07:24:52.744Z,59.86
2022-08-17T07:25:52.979Z,59.14
2022-08-17T07:26:53.322Z,58.54
2022-08-17T07:27:54.289Z,58.64
2022-08-17T07:28:54.294Z,59.23
2022-08-17T07:29:53.664Z,59.41
2022-08-17T07:30:54.790Z,58.42
2022-08-17T07:31:54.308Z,58.32
2022-08-17T07:32:54.269Z,58.81
2022-08-17T07:33:55.294Z,57.59
2022-08-17T07:34:54.544Z,56.51
2022-08-17T07:35:54.695Z,58.09
2022-08-17T07:36:55.322Z,57.86
2022-08-17T07:37:55.305Z,57.24
2022-08-17T07:38:55.211Z,57.64
2022-08-17T07:39:58.775Z,56.42
2022-08-17T07:40:57.318Z,56.72
2022-08-17T07:41:58.783Z,56.72
2022-08-17T07:42:55.909Z,55.41
2022-08-17T07:43:56.081Z,55.60
2022-08-17T07:44:56.797Z,56.10
2022-08-17T07:45:56.810Z,55.58
2022-08-17T07:46:57.329Z,54.98
2022-08-17T07:47:56.719Z,55.18
2022-08-17T07:48:56.918Z,55.21
2022-08-17T07:49:57.052Z,55.18
2022-08-17T07:50:57.182Z,55.08
2022-08-17T07:51:57.356Z,55.51
2022-08-17T07:52:58.472Z,54.44
2022-08-17T07:54:13.197Z,54.54
2022-08-17T07:55:00.319Z,55.53
2022-08-17T07:55:58.160Z,55.63
2022-08-17T07:56:58.817Z,54.74
2022-08-17T07:57:58.812Z,54.44
2022-08-17T07:58:59.307Z,54.64
2022-08-17T07:59:58.936Z,55.11
2022-08-17T08:00:59.118Z,55.30
2022-08-17T08:01:59.860Z,55.21
2022-08-17T08:02:59.405Z,54.32
2022-08-17T08:03:59.611Z,54.42
2022-08-17T08:05:01.707Z,54.02
2022-08-17T08:06:00.923Z,54.71
2022-08-17T08:07:00.163Z,53.92
2022-08-17T08:08:00.348Z,53.53
2022-08-17T08:09:00.515Z,53.13
2022-08-17T08:10:00.673Z,53.67
2022-08-17T08:11:01.859Z,52.56
2022-08-17T08:12:01.030Z,52.14
2022-08-17T08:13:01.223Z,52.01
2022-08-17T08:14:01.411Z,52.39
2022-08-17T08:15:02.307Z,52.04
2022-08-17T08:16:02.308Z,50.63
2022-08-17T08:17:01.912Z,50.51
2022-08-17T08:18:02.053Z,49.43
2022-08-17T08:19:02.194Z,49.52
2022-08-17T08:20:37.874Z,49.62
2022-08-17T08:21:03.543Z,47.56
2022-08-17T08:22:02.746Z,48.27
2022-08-17T08:23:02.913Z,48.51
2022-08-17T08:24:03.139Z,49.03
2022-08-17T08:25:03.246Z,50.12
2022-08-17T08:26:04.315Z,50.12
2022-08-17T08:27:03.559Z,50.59
2022-08-17T08:28:03.795Z,49.50
2022-08-17T08:29:03.998Z,49.52
2022-08-17T08:30:04.136Z,49.84
2022-08-17T08:31:04.263Z,50.26
2022-08-17T08:32:04.406Z,50.36
2022-08-17T08:33:04.555Z,50.78
2022-08-17T08:34:04.708Z,51.30
2022-08-17T08:35:04.888Z,51.18
2022-08-17T08:36:05.024Z,51.18
2022-08-17T08:37:16.460Z,51.18
2022-08-17T08:38:06.363Z,50.59
2022-08-17T08:39:05.576Z,50.38
2022-08-17T08:40:06.388Z,50.68
2022-08-17T08:41:05.959Z,51.40
2022-08-17T08:42:06.102Z,51.28
2022-08-17T08:43:06.246Z,50.48
2022-08-17T08:44:07.335Z,51.47
2022-08-17T08:45:06.569Z,50.68
2022-08-17T08:46:07.320Z,50.98
2022-08-17T08:47:07.825Z,51.15
2022-08-17T08:48:07.092Z,50.66
2022-08-17T08:49:10.217Z,50.68
2022-08-17T08:50:08.325Z,50.95
2022-08-17T08:51:08.832Z,51.05
2022-08-17T08:52:08.834Z,50.46
2022-08-17T08:53:08.094Z,50.78
2022-08-17T08:54:08.230Z,50.85
2022-08-17T08:55:09.328Z,50.56
2022-08-17T08:56:08.567Z,50.26
2022-08-17T08:57:24.249Z,50.48
2022-08-17T08:58:31.731Z,51.28
2022-08-17T08:59:10.149Z,50.88
2022-08-17T09:00:09.824Z,50.95
2022-08-17T09:01:09.564Z,51.15
2022-08-17T09:02:10.609Z,50.98
2022-08-17T09:03:09.897Z,50.78
2022-08-17T09:04:24.055Z,50.85
2022-08-17T09:05:14.996Z,50.26
2022-08-17T09:06:32.147Z,50.54
2022-08-17T09:07:11.753Z,49.45
2022-08-17T09:08:10.875Z,49.35
2022-08-17T09:09:11.362Z,49.27
2022-08-17T09:10:11.279Z,49.67
2022-08-17T09:11:11.418Z,49.96
2022-08-17T09:12:11.560Z,49.67
2022-08-17T09:13:11.710Z,49.77
2022-08-17T09:14:22.119Z,49.96
2022-08-17T09:15:13.289Z,50.78
2022-08-17T09:16:13.832Z,49.79
2022-08-17T09:17:12.436Z,49.69
2022-08-17T09:19:00.795Z,50.36
2022-08-17T09:19:14.824Z,50.29
2022-08-17T09:20:14.472Z,49.69
2022-08-17T09:21:14.255Z,50.68
2022-08-17T09:22:13.854Z,50.61
2022-08-17T09:23:14.376Z,51.28
2022-08-17T09:24:13.757Z,51.28
2022-08-17T09:25:14.996Z,49.10
2022-08-17T09:26:14.241Z,50.61
2022-08-17T09:27:14.404Z,50.81
2022-08-17T09:28:14.542Z,50.51
2022-08-17T09:29:14.784Z,50.90
2022-08-17T09:30:14.925Z,51.40
2022-08-17T09:31:15.068Z,50.71
2022-08-17T09:32:15.225Z,51.40
2022-08-17T09:33:15.338Z,51.50
2022-08-17T09:34:16.350Z,51.20
2022-08-17T09:35:15.683Z,51.40
2022-08-17T09:36:15.829Z,51.42
2022-08-17T09:37:16.851Z,51.13
2022-08-17T09:38:16.125Z,51.52
2022-08-17T09:39:16.236Z,51.82
2022-08-17T09:40:16.458Z,51.82
2022-08-17T09:41:16.606Z,51.82
2022-08-17T09:42:17.357Z,51.92
2022-08-17T09:43:17.003Z,52.41
2022-08-17T09:44:23.016Z,52.71
2022-08-17T09:45:19.370Z,52.31
2022-08-17T09:46:17.589Z,52.34
2022-08-17T09:47:17.775Z,52.64
2022-08-17T09:48:18.161Z,52.34
2022-08-17T09:49:20.704Z,52.31
2022-08-17T09:51:05.378Z,52.71
2022-08-17T09:51:19.589Z,52.41
2022-08-17T09:52:18.840Z,53.30
2022-08-17T09:53:18.964Z,53.00
2022-08-17T09:54:38.214Z,53.20
2022-08-17T09:55:21.320Z,53.11
2022-08-17T09:56:19.556Z,53.11
2022-08-17T09:57:31.617Z,53.13
2022-08-17T09:58:21.834Z,53.30
2022-08-17T09:59:21.051Z,53.11
2022-08-17T10:00:20.267Z,53.63
2022-08-17T10:01:20.909Z,53.42
2022-08-17T10:02:20.530Z,53.82
2022-08-17T10:03:20.679Z,53.92
2022-08-17T10:04:22.123Z,53.95
2022-08-17T10:05:20.991Z,53.65
2022-08-17T10:06:22.194Z,53.75
2022-08-17T10:07:22.305Z,54.14
2022-08-17T10:08:21.585Z,54.24
2022-08-17T10:09:22.352Z,54.14
2022-08-17T10:10:21.856Z,54.22
2022-08-17T10:11:21.994Z,54.24
2022-08-17T10:12:23.221Z,54.22
2022-08-17T10:13:24.171Z,54.02
2022-08-17T10:14:37.694Z,54.22
2022-08-17T10:15:23.864Z,54.44
2022-08-17T10:16:22.974Z,54.12
2022-08-17T10:17:23.857Z,54.22
2022-08-17T10:18:23.252Z,53.72
2022-08-17T10:19:23.386Z,54.12
2022-08-17T10:20:23.562Z,54.32
2022-08-17T10:21:23.709Z,54.32
2022-08-17T10:22:34.750Z,54.02
2022-08-17T10:23:25.859Z,54.32
2022-08-17T10:24:24.210Z,54.12
2022-08-17T10:25:27.912Z,53.82
2022-08-17T10:26:27.379Z,53.72
2022-08-17T10:27:25.701Z,54.32
2022-08-17T10:28:29.462Z,54.12
2022-08-17T10:29:28.957Z,54.71
2022-08-17T10:30:25.382Z,54.42
2022-08-17T10:31:35.392Z,54.32
2022-08-17T10:32:27.587Z,54.61
2022-08-17T10:33:25.817Z,54.12
2022-08-17T10:34:26.868Z,54.91
2022-08-17T10:35:26.376Z,53.92
2022-08-17T10:36:26.853Z,54.22
2022-08-17T10:37:27.900Z,54.71
2022-08-17T10:38:27.365Z,54.22
2022-08-17T10:39:27.001Z,54.71
2022-08-17T10:40:27.099Z,56.49
2022-08-17T10:41:27.266Z,57.68
2022-08-17T10:42:32.771Z,58.37
2022-08-17T10:43:27.691Z,58.67
2022-08-17T10:44:39.280Z,58.77
2022-08-17T10:45:28.985Z,59.09
2022-08-17T10:46:30.905Z,58.60
2022-08-17T10:47:29.375Z,59.00
2022-08-17T10:48:28.639Z,59.19
2022-08-17T10:49:28.741Z,59.39
2022-08-17T10:50:28.982Z,60.02
2022-08-17T10:51:29.099Z,59.52
2022-08-17T10:52:29.354Z,59.75
2022-08-17T10:53:29.503Z,59.92
2022-08-17T10:54:30.376Z,60.51
2022-08-17T10:55:30.404Z,60.91
2022-08-17T10:56:30.875Z,60.34
2022-08-17T10:57:30.232Z,60.94
2022-08-17T10:58:30.887Z,60.94
2022-08-17T10:59:31.397Z,61.33
2022-08-17T11:00:30.709Z,61.43
2022-08-17T11:01:30.896Z,61.16
2022-08-17T11:02:31.041Z,61.86
2022-08-17T11:03:31.227Z,61.96
2022-08-17T11:04:32.388Z,61.86
2022-08-17T11:05:31.625Z,62.05
2022-08-17T11:06:32.376Z,62.55
2022-08-17T11:07:32.907Z,62.15
2022-08-17T11:08:32.181Z,62.08
2022-08-17T11:09:32.391Z,62.38
2022-08-17T11:10:32.564Z,62.18
2022-08-17T11:11:32.699Z,61.49
2022-08-17T11:12:32.828Z,61.79
2022-08-17T11:13:33.871Z,61.89
2022-08-17T11:14:34.082Z,61.56
2022-08-17T11:15:33.329Z,61.89
2022-08-17T11:16:33.488Z,61.86
2022-08-17T11:17:34.382Z,62.15
2022-08-17T11:18:34.418Z,62.38
2022-08-17T11:19:33.917Z,62.26
2022-08-17T11:20:35.174Z,62.08
2022-08-17T11:21:34.991Z,61.79
2022-08-17T11:22:34.538Z,62.18
2022-08-17T11:23:34.691Z,61.89
2022-08-17T11:24:35.382Z,62.18
2022-08-17T11:25:35.014Z,61.86
2022-08-17T11:26:35.163Z,61.96
2022-08-17T11:27:35.330Z,62.55
2022-08-17T11:28:36.382Z,61.96
2022-08-17T11:29:36.391Z,62.32
2022-08-17T11:30:35.864Z,61.23
2022-08-17T11:31:38.004Z,60.54
2022-08-17T11:32:36.225Z,60.64
2022-08-17T11:33:36.833Z,61.33
2022-08-17T11:34:36.580Z,61.40
2022-08-17T11:35:37.391Z,61.30
2022-08-17T11:36:36.889Z,60.91
2022-08-17T11:37:37.051Z,60.71
2022-08-17T11:38:37.209Z,60.81
2022-08-17T11:39:37.966Z,61.21
2022-08-17T11:40:38.387Z,60.81
2022-08-17T11:41:37.658Z,61.30
2022-08-17T11:42:37.853Z,60.91
2022-08-17T11:43:42.657Z,60.71
2022-08-17T11:44:39.893Z,61.21
2022-08-17T11:45:38.930Z,60.51
2022-08-17T11:46:38.608Z,60.71
2022-08-17T11:47:38.733Z,59.72
2022-08-17T11:48:39.883Z,60.02
2022-08-17T11:49:39.029Z,60.41
2022-08-17T11:50:39.199Z,61.00
2022-08-17T11:51:39.423Z,60.71
2022-08-17T11:52:39.590Z,61.00
2022-08-17T11:53:39.819Z,61.00
2022-08-17T11:54:40.899Z,60.08
2022-08-17T11:55:44.458Z,60.41
2022-08-17T11:56:41.416Z,61.00
2022-08-17T11:57:41.409Z,60.78
2022-08-17T11:58:40.681Z,61.18
2022-08-17T11:59:41.401Z,59.99
2022-08-17T12:00:41.040Z,60.51
2022-08-17T12:01:41.233Z,60.58
2022-08-17T12:02:44.446Z,60.68
2022-08-17T12:03:54.233Z,60.65
2022-08-17T12:04:42.791Z,60.16
2022-08-17T12:05:41.977Z,60.55
2022-08-17T12:06:42.414Z,59.83
2022-08-17T12:07:42.319Z,59.46
2022-08-17T12:08:42.497Z,59.66
2022-08-17T12:09:43.397Z,59.46
2022-08-17T12:10:42.954Z,59.36
2022-08-17T12:11:55.124Z,59.04
2022-08-17T12:12:44.273Z,59.63
2022-08-17T12:13:43.915Z,58.12
2022-08-17T12:15:10.141Z,58.05
2022-08-17T12:15:46.390Z,59.33
2022-08-17T12:16:45.432Z,59.31
2022-08-17T12:17:44.011Z,58.91
2022-08-17T12:18:44.168Z,58.81
2022-08-17T12:19:44.321Z,58.15
2022-08-17T12:20:44.484Z,58.34
2022-08-17T12:21:45.414Z,58.05
2022-08-17T12:22:44.795Z,59.23
2022-08-17T12:23:44.937Z,58.61
2022-08-17T12:24:45.912Z,58.34
2022-08-17T12:25:45.304Z,58.72
2022-08-17T12:26:45.422Z,57.75
2022-08-17T12:28:06.786Z,57.85
2022-08-17T12:28:47.407Z,58.15
2022-08-17T12:29:46.110Z,57.85
2022-08-17T12:30:46.263Z,58.47
2022-08-17T12:31:46.410Z,58.37
2022-08-17T12:32:46.546Z,59.36
2022-08-17T12:33:46.705Z,58.97
2022-08-17T12:34:46.853Z,58.07
2022-08-17T12:35:47.005Z,58.07
2022-08-17T12:36:47.424Z,58.47
2022-08-17T12:37:47.430Z,59.06
2022-08-17T12:38:47.435Z,58.77
2022-08-17T12:39:48.445Z,59.66
2022-08-17T12:40:47.716Z,59.27
2022-08-17T12:41:47.899Z,59.17
2022-08-17T12:42:48.106Z,60.03
2022-08-17T12:43:48.923Z,59.95
2022-08-17T12:44:50.256Z,58.45
2022-08-17T12:45:48.658Z,59.33
2022-08-17T12:46:48.930Z,58.47
2022-08-17T12:47:49.203Z,58.37
2022-08-17T12:48:58.898Z,59.46
2022-08-17T12:49:50.267Z,60.13
2022-08-17T12:50:49.920Z,59.53
2022-08-17T12:51:49.531Z,58.91
2022-08-17T12:52:49.640Z,59.70
2022-08-17T12:53:50.422Z,58.39
2022-08-17T12:54:49.927Z,58.98